sensor_id;sensor_type;location;lat;lon;timestamp;P1;durP1;ratioP1;P2;durP2;ratioP2
43682;SDS011;29285;52.128;21.060;2022-12-24T00:03:16;25.10;;;16.85;;
43682;SDS011;29285;52.128;21.060;2022-12-24T00:08:17;23.00;;;14.55;;
43682;SDS011;29285;52.128;21.060;2022-12-24T00:13:19;19.07;;;12.82;;
43682;SDS011;29285;52.128;21.060;2022-12-24T00:18:21;17.17;;;11.03;;
43682;SDS011;29285;52.128;21.060;2022-12-24T00:23:22;15.28;;;10.20;;
43682;SDS011;29285;52.128;21.060;2022-12-24T00:28:24;14.78;;;9.93;;
43682;SDS011;29285;52.128;21.060;2022-12-24T00:33:26;21.25;;;13.50;;
43682;SDS011;29285;52.128;21.060;2022-12-24T00:38:27;22.87;;;15.32;;
43682;SDS011;29285;52.128;21.060;2022-12-24T00:43:29;20.43;;;13.35;;
43682;SDS011;29285;52.128;21.060;2022-12-24T00:48:31;28.00;;;17.87;;
43682;SDS011;29285;52.128;21.060;2022-12-24T00:53:32;29.05;;;20.02;;
43682;SDS011;29285;52.128;21.060;2022-12-24T00:58:34;33.83;;;20.68;;
43682;SDS011;29285;52.128;21.060;2022-12-24T01:03:36;28.23;;;17.62;;
43682;SDS011;29285;52.128;21.060;2022-12-24T01:08:37;24.98;;;16.30;;
43682;SDS011;29285;52.128;21.060;2022-12-24T01:13:40;24.98;;;16.40;;
43682;SDS011;29285;52.128;21.060;2022-12-24T01:18:41;21.57;;;15.35;;
43682;SDS011;29285;52.128;21.060;2022-12-24T01:23:43;25.40;;;16.48;;
43682;SDS011;29285;52.128;21.060;2022-12-24T01:28:45;26.70;;;15.95;;
43682;SDS011;29285;52.128;21.060;2022-12-24T01:33:47;25.12;;;17.27;;
43682;SDS011;29285;52.128;21.060;2022-12-24T01:38:49;24.82;;;16.62;;
43682;SDS011;29285;52.128;21.060;2022-12-24T01:43:50;25.40;;;16.05;;
43682;SDS011;29285;52.128;21.060;2022-12-24T01:48:52;33.63;;;18.42;;
43682;SDS011;29285;52.128;21.060;2022-12-24T01:54:02;32.83;;;18.55;;
43682;SDS011;29285;52.128;21.060;2022-12-24T01:59:35;40.95;;;24.20;;
43682;SDS011;29285;52.128;21.060;2022-12-24T02:09:48;30.55;;;18.07;;
43682;SDS011;29285;52.128;21.060;2022-12-24T02:14:54;30.40;;;17.75;;
43682;SDS011;29285;52.128;21.060;2022-12-24T02:31:01;36.40;;;20.32;;
43682;SDS011;29285;52.128;21.060;2022-12-24T02:41:32;31.05;;;19.02;;
43682;SDS011;29285;52.128;21.060;2022-12-24T02:46:39;29.20;;;18.90;;
43682;SDS011;29285;52.128;21.060;2022-12-24T02:51:40;27.80;;;17.27;;
43682;SDS011;29285;52.128;21.060;2022-12-24T03:07:43;35.17;;;20.08;;
43682;SDS011;29285;52.128;21.060;2022-12-24T03:13:08;31.70;;;18.23;;
43682;SDS011;29285;52.128;21.060;2022-12-24T03:18:16;30.80;;;17.87;;
43682;SDS011;29285;52.128;21.060;2022-12-24T03:23:21;34.43;;;19.95;;
43682;SDS011;29285;52.128;21.060;2022-12-24T03:28:23;28.95;;;18.20;;
43682;SDS011;29285;52.128;21.060;2022-12-24T03:33:28;27.77;;;19.25;;
43682;SDS011;29285;52.128;21.060;2022-12-24T03:38:29;25.20;;;15.50;;
43682;SDS011;29285;52.128;21.060;2022-12-24T03:43:31;28.52;;;17.50;;
43682;SDS011;29285;52.128;21.060;2022-12-24T03:48:33;31.10;;;19.90;;
43682;SDS011;29285;52.128;21.060;2022-12-24T03:53:35;26.65;;;17.05;;
43682;SDS011;29285;52.128;21.060;2022-12-24T03:58:36;22.95;;;15.13;;
43682;SDS011;29285;52.128;21.060;2022-12-24T04:03:38;23.95;;;14.15;;
43682;SDS011;29285;52.128;21.060;2022-12-24T04:08:39;23.52;;;15.13;;
43682;SDS011;29285;52.128;21.060;2022-12-24T04:13:41;22.45;;;13.93;;
43682;SDS011;29285;52.128;21.060;2022-12-24T04:18:42;20.92;;;14.15;;
43682;SDS011;29285;52.128;21.060;2022-12-24T04:23:44;20.77;;;13.70;;
43682;SDS011;29285;52.128;21.060;2022-12-24T04:28:45;20.50;;;13.62;;
43682;SDS011;29285;52.128;21.060;2022-12-24T04:33:46;19.37;;;13.20;;
43682;SDS011;29285;52.128;21.060;2022-12-24T04:38:50;18.85;;;13.45;;
43682;SDS011;29285;52.128;21.060;2022-12-24T04:43:52;18.15;;;13.75;;
43682;SDS011;29285;52.128;21.060;2022-12-24T04:48:55;18.37;;;14.23;;
43682;SDS011;29285;52.128;21.060;2022-12-24T04:53:57;19.17;;;12.43;;
43682;SDS011;29285;52.128;21.060;2022-12-24T04:58:59;20.20;;;14.10;;
43682;SDS011;29285;52.128;21.060;2022-12-24T05:04:01;21.57;;;14.18;;
43682;SDS011;29285;52.128;21.060;2022-12-24T05:09:03;21.05;;;14.45;;
43682;SDS011;29285;52.128;21.060;2022-12-24T05:14:04;19.73;;;14.18;;
43682;SDS011;29285;52.128;21.060;2022-12-24T05:19:05;20.27;;;14.43;;
43682;SDS011;29285;52.128;21.060;2022-12-24T05:24:08;23.50;;;14.95;;
43682;SDS011;29285;52.128;21.060;2022-12-24T05:29:49;20.05;;;15.35;;
43682;SDS011;29285;52.128;21.060;2022-12-24T05:34:50;19.00;;;13.03;;
43682;SDS011;29285;52.128;21.060;2022-12-24T05:39:51;19.45;;;13.30;;
43682;SDS011;29285;52.128;21.060;2022-12-24T05:44:52;20.00;;;14.45;;
43682;SDS011;29285;52.128;21.060;2022-12-24T05:49:54;19.57;;;13.20;;
43682;SDS011;29285;52.128;21.060;2022-12-24T05:54:55;19.02;;;13.43;;
43682;SDS011;29285;52.128;21.060;2022-12-24T05:59:56;19.05;;;12.90;;
43682;SDS011;29285;52.128;21.060;2022-12-24T06:04:58;21.65;;;12.53;;
43682;SDS011;29285;52.128;21.060;2022-12-24T06:09:59;25.55;;;14.45;;
43682;SDS011;29285;52.128;21.060;2022-12-24T06:15:01;20.35;;;13.55;;
43682;SDS011;29285;52.128;21.060;2022-12-24T06:20:02;23.50;;;14.45;;
43682;SDS011;29285;52.128;21.060;2022-12-24T06:25:04;21.93;;;13.93;;
43682;SDS011;29285;52.128;21.060;2022-12-24T06:30:07;19.75;;;12.75;;
43682;SDS011;29285;52.128;21.060;2022-12-24T06:35:10;21.75;;;13.15;;
43682;SDS011;29285;52.128;21.060;2022-12-24T06:40:11;19.35;;;11.90;;
43682;SDS011;29285;52.128;21.060;2022-12-24T06:45:13;21.10;;;13.78;;
43682;SDS011;29285;52.128;21.060;2022-12-24T06:50:15;22.40;;;13.30;;
43682;SDS011;29285;52.128;21.060;2022-12-24T06:55:16;22.32;;;13.78;;
43682;SDS011;29285;52.128;21.060;2022-12-24T07:00:17;21.23;;;13.30;;
43682;SDS011;29285;52.128;21.060;2022-12-24T07:05:21;22.55;;;13.32;;
43682;SDS011;29285;52.128;21.060;2022-12-24T07:10:22;22.70;;;13.08;;
43682;SDS011;29285;52.128;21.060;2022-12-24T07:15:25;17.50;;;11.83;;
43682;SDS011;29285;52.128;21.060;2022-12-24T07:20:26;20.20;;;12.05;;
43682;SDS011;29285;52.128;21.060;2022-12-24T07:25:27;19.05;;;12.50;;
43682;SDS011;29285;52.128;21.060;2022-12-24T07:30:28;17.62;;;10.55;;
43682;SDS011;29285;52.128;21.060;2022-12-24T07:35:30;18.48;;;11.73;;
43682;SDS011;29285;52.128;21.060;2022-12-24T07:40:32;16.52;;;10.28;;
43682;SDS011;29285;52.128;21.060;2022-12-24T07:45:34;15.80;;;10.48;;
43682;SDS011;29285;52.128;21.060;2022-12-24T07:50:35;19.35;;;12.50;;
43682;SDS011;29285;52.128;21.060;2022-12-24T07:55:37;19.05;;;11.73;;
43682;SDS011;29285;52.128;21.060;2022-12-24T08:00:38;19.07;;;11.85;;
43682;SDS011;29285;52.128;21.060;2022-12-24T08:05:39;15.50;;;9.85;;
43682;SDS011;29285;52.128;21.060;2022-12-24T08:10:41;15.93;;;9.93;;
43682;SDS011;29285;52.128;21.060;2022-12-24T08:15:44;18.65;;;10.85;;
43682;SDS011;29285;52.128;21.060;2022-12-24T08:20:46;13.68;;;9.55;;
43682;SDS011;29285;52.128;21.060;2022-12-24T08:25:47;16.75;;;9.95;;
43682;SDS011;29285;52.128;21.060;2022-12-24T08:30:49;15.30;;;9.03;;
43682;SDS011;29285;52.128;21.060;2022-12-24T08:35:52;14.87;;;9.80;;
43682;SDS011;29285;52.128;21.060;2022-12-24T08:40:55;13.95;;;9.40;;
43682;SDS011;29285;52.128;21.060;2022-12-24T08:46:00;13.53;;;8.43;;
43682;SDS011;29285;52.128;21.060;2022-12-24T08:51:10;14.65;;;8.93;;
43682;SDS011;29285;52.128;21.060;2022-12-24T08:56:10;15.53;;;9.30;;
43682;SDS011;29285;52.128;21.060;2022-12-24T09:01:13;13.05;;;8.45;;
43682;SDS011;29285;52.128;21.060;2022-12-24T09:06:18;15.38;;;9.98;;
43682;SDS011;29285;52.128;21.060;2022-12-24T09:11:19;15.05;;;11.10;;
43682;SDS011;29285;52.128;21.060;2022-12-24T09:16:21;16.27;;;9.98;;
43682;SDS011;29285;52.128;21.060;2022-12-24T09:21:23;12.82;;;9.60;;
43682;SDS011;29285;52.128;21.060;2022-12-24T09:26:25;14.03;;;9.15;;
43682;SDS011;29285;52.128;21.060;2022-12-24T09:31:29;13.50;;;8.83;;
43682;SDS011;29285;52.128;21.060;2022-12-24T09:36:30;12.53;;;8.28;;
43682;SDS011;29285;52.128;21.060;2022-12-24T09:46:46;13.57;;;8.57;;
43682;SDS011;29285;52.128;21.060;2022-12-24T09:56:59;12.23;;;7.10;;
43682;SDS011;29285;52.128;21.060;2022-12-24T10:02:10;11.50;;;7.62;;
43682;SDS011;29285;52.128;21.060;2022-12-24T10:23:46;9.35;;;7.00;;
43682;SDS011;29285;52.128;21.060;2022-12-24T10:34:40;8.33;;;6.22;;
43682;SDS011;29285;52.128;21.060;2022-12-24T10:39:45;8.78;;;6.35;;
43682;SDS011;29285;52.128;21.060;2022-12-24T10:44:49;6.92;;;5.67;;
43682;SDS011;29285;52.128;21.060;2022-12-24T10:49:59;7.30;;;5.47;;
43682;SDS011;29285;52.128;21.060;2022-12-24T11:00:23;7.67;;;4.97;;
43682;SDS011;29285;52.128;21.060;2022-12-24T11:05:27;6.58;;;5.70;;
43682;SDS011;29285;52.128;21.060;2022-12-24T11:10:32;6.90;;;5.83;;
43682;SDS011;29285;52.128;21.060;2022-12-24T11:15:36;6.33;;;4.78;;
43682;SDS011;29285;52.128;21.060;2022-12-24T11:20:37;8.30;;;5.50;;
43682;SDS011;29285;52.128;21.060;2022-12-24T11:25:40;7.33;;;5.22;;
43682;SDS011;29285;52.128;21.060;2022-12-24T11:31:17;8.10;;;6.20;;
43682;SDS011;29285;52.128;21.060;2022-12-24T11:36:20;8.90;;;6.45;;
43682;SDS011;29285;52.128;21.060;2022-12-24T11:41:24;7.95;;;6.47;;
43682;SDS011;29285;52.128;21.060;2022-12-24T11:57:07;10.98;;;7.78;;
43682;SDS011;29285;52.128;21.060;2022-12-24T12:02:29;11.10;;;7.12;;
43682;SDS011;29285;52.128;21.060;2022-12-24T12:07:39;9.20;;;7.17;;
43682;SDS011;29285;52.128;21.060;2022-12-24T12:12:49;10.57;;;7.03;;
43682;SDS011;29285;52.128;21.060;2022-12-24T12:18:06;10.53;;;6.95;;
43682;SDS011;29285;52.128;21.060;2022-12-24T12:23:30;10.45;;;7.83;;
43682;SDS011;29285;52.128;21.060;2022-12-24T12:28:38;10.20;;;7.15;;
43682;SDS011;29285;52.128;21.060;2022-12-24T12:39:17;10.50;;;6.75;;
43682;SDS011;29285;52.128;21.060;2022-12-24T12:44:28;10.45;;;7.30;;
43682;SDS011;29285;52.128;21.060;2022-12-24T12:54:54;10.70;;;6.92;;
43682;SDS011;29285;52.128;21.060;2022-12-24T13:05:27;12.78;;;8.55;;
43682;SDS011;29285;52.128;21.060;2022-12-24T13:11:04;11.48;;;6.90;;
43682;SDS011;29285;52.128;21.060;2022-12-24T13:22:20;12.40;;;8.08;;
43682;SDS011;29285;52.128;21.060;2022-12-24T13:27:26;12.33;;;7.23;;
43682;SDS011;29285;52.128;21.060;2022-12-24T13:32:38;12.50;;;8.60;;
43682;SDS011;29285;52.128;21.060;2022-12-24T13:37:43;11.78;;;8.23;;
43682;SDS011;29285;52.128;21.060;2022-12-24T13:53:22;12.37;;;9.25;;
43682;SDS011;29285;52.128;21.060;2022-12-24T13:58:34;13.80;;;9.78;;
43682;SDS011;29285;52.128;21.060;2022-12-24T14:08:52;14.35;;;9.50;;
43682;SDS011;29285;52.128;21.060;2022-12-24T14:24:30;14.55;;;10.60;;
43682;SDS011;29285;52.128;21.060;2022-12-24T14:29:31;15.15;;;10.93;;
43682;SDS011;29285;52.128;21.060;2022-12-24T14:34:36;13.13;;;9.30;;
43682;SDS011;29285;52.128;21.060;2022-12-24T14:39:41;16.12;;;9.88;;
43682;SDS011;29285;52.128;21.060;2022-12-24T14:56:14;16.87;;;11.57;;
43682;SDS011;29285;52.128;21.060;2022-12-24T15:01:20;18.62;;;12.07;;
43682;SDS011;29285;52.128;21.060;2022-12-24T15:06:28;18.30;;;11.93;;
43682;SDS011;29285;52.128;21.060;2022-12-24T15:11:33;21.05;;;11.33;;
43682;SDS011;29285;52.128;21.060;2022-12-24T15:16:34;19.27;;;12.03;;
43682;SDS011;29285;52.128;21.060;2022-12-24T15:21:37;20.90;;;12.50;;
43682;SDS011;29285;52.128;21.060;2022-12-24T15:26:43;19.80;;;13.53;;
43682;SDS011;29285;52.128;21.060;2022-12-24T15:31:44;18.47;;;13.33;;
43682;SDS011;29285;52.128;21.060;2022-12-24T15:36:46;21.57;;;13.53;;
43682;SDS011;29285;52.128;21.060;2022-12-24T15:41:47;25.75;;;16.55;;
43682;SDS011;29285;52.128;21.060;2022-12-24T15:47:13;27.13;;;15.13;;
43682;SDS011;29285;52.128;21.060;2022-12-24T15:52:24;24.98;;;14.60;;
43682;SDS011;29285;52.128;21.060;2022-12-24T15:57:29;21.75;;;12.95;;
43682;SDS011;29285;52.128;21.060;2022-12-24T16:02:39;24.12;;;14.23;;
43682;SDS011;29285;52.128;21.060;2022-12-24T16:07:42;24.02;;;14.33;;
43682;SDS011;29285;52.128;21.060;2022-12-24T16:13:13;24.75;;;15.08;;
43682;SDS011;29285;52.128;21.060;2022-12-24T16:23:46;29.70;;;16.57;;
43682;SDS011;29285;52.128;21.060;2022-12-24T16:28:50;29.35;;;14.45;;
43682;SDS011;29285;52.128;21.060;2022-12-24T16:33:52;23.18;;;13.18;;
43682;SDS011;29285;52.128;21.060;2022-12-24T16:38:56;22.75;;;13.90;;
43682;SDS011;29285;52.128;21.060;2022-12-24T16:44:17;23.62;;;13.98;;
43682;SDS011;29285;52.128;21.060;2022-12-24T16:49:19;25.30;;;14.30;;
43682;SDS011;29285;52.128;21.060;2022-12-24T16:54:22;26.03;;;15.90;;
43682;SDS011;29285;52.128;21.060;2022-12-24T16:59:23;23.05;;;14.45;;
43682;SDS011;29285;52.128;21.060;2022-12-24T17:04:25;28.07;;;15.48;;
43682;SDS011;29285;52.128;21.060;2022-12-24T17:09:26;23.70;;;14.80;;
43682;SDS011;29285;52.128;21.060;2022-12-24T17:14:28;24.43;;;14.05;;
43682;SDS011;29285;52.128;21.060;2022-12-24T17:19:29;37.05;;;18.57;;
43682;SDS011;29285;52.128;21.060;2022-12-24T17:24:31;25.20;;;14.95;;
43682;SDS011;29285;52.128;21.060;2022-12-24T17:29:32;25.48;;;15.65;;
43682;SDS011;29285;52.128;21.060;2022-12-24T17:34:34;29.55;;;16.62;;
43682;SDS011;29285;52.128;21.060;2022-12-24T17:39:36;30.62;;;17.20;;
43682;SDS011;29285;52.128;21.060;2022-12-24T17:44:37;25.95;;;15.98;;
43682;SDS011;29285;52.128;21.060;2022-12-24T17:49:38;26.62;;;15.90;;
43682;SDS011;29285;52.128;21.060;2022-12-24T17:54:40;32.95;;;18.30;;
43682;SDS011;29285;52.128;21.060;2022-12-24T17:59:41;25.70;;;16.05;;
43682;SDS011;29285;52.128;21.060;2022-12-24T18:04:42;27.42;;;16.82;;
43682;SDS011;29285;52.128;21.060;2022-12-24T18:09:44;29.80;;;16.65;;
43682;SDS011;29285;52.128;21.060;2022-12-24T18:14:45;29.48;;;17.57;;
43682;SDS011;29285;52.128;21.060;2022-12-24T18:19:47;30.15;;;17.90;;
43682;SDS011;29285;52.128;21.060;2022-12-24T18:24:48;30.62;;;20.08;;
43682;SDS011;29285;52.128;21.060;2022-12-24T18:29:50;26.70;;;16.50;;
43682;SDS011;29285;52.128;21.060;2022-12-24T18:34:51;26.27;;;16.80;;
43682;SDS011;29285;52.128;21.060;2022-12-24T18:39:52;26.48;;;16.32;;
43682;SDS011;29285;52.128;21.060;2022-12-24T18:44:54;27.25;;;16.35;;
43682;SDS011;29285;52.128;21.060;2022-12-24T18:49:55;24.90;;;16.23;;
43682;SDS011;29285;52.128;21.060;2022-12-24T18:54:57;27.93;;;16.37;;
43682;SDS011;29285;52.128;21.060;2022-12-24T18:59:58;27.00;;;14.60;;
43682;SDS011;29285;52.128;21.060;2022-12-24T19:04:59;27.58;;;16.40;;
43682;SDS011;29285;52.128;21.060;2022-12-24T19:10:01;28.45;;;15.43;;
43682;SDS011;29285;52.128;21.060;2022-12-24T19:15:03;27.02;;;16.55;;
43682;SDS011;29285;52.128;21.060;2022-12-24T19:20:06;26.60;;;16.30;;
43682;SDS011;29285;52.128;21.060;2022-12-24T19:25:08;24.77;;;15.70;;
43682;SDS011;29285;52.128;21.060;2022-12-24T19:30:10;22.62;;;14.53;;
43682;SDS011;29285;52.128;21.060;2022-12-24T19:35:12;24.35;;;14.50;;
43682;SDS011;29285;52.128;21.060;2022-12-24T19:40:14;21.10;;;13.98;;
43682;SDS011;29285;52.128;21.060;2022-12-24T19:45:16;24.87;;;14.85;;
43682;SDS011;29285;52.128;21.060;2022-12-24T19:50:19;25.35;;;14.90;;
43682;SDS011;29285;52.128;21.060;2022-12-24T19:55:21;25.37;;;16.05;;
43682;SDS011;29285;52.128;21.060;2022-12-24T20:00:22;22.22;;;13.80;;
43682;SDS011;29285;52.128;21.060;2022-12-24T20:05:24;22.87;;;14.25;;
43682;SDS011;29285;52.128;21.060;2022-12-24T20:10:25;22.17;;;14.63;;
43682;SDS011;29285;52.128;21.060;2022-12-24T20:15:27;28.15;;;17.55;;
43682;SDS011;29285;52.128;21.060;2022-12-24T20:20:28;26.05;;;15.63;;
43682;SDS011;29285;52.128;21.060;2022-12-24T20:25:32;24.72;;;15.98;;
43682;SDS011;29285;52.128;21.060;2022-12-24T20:30:36;28.77;;;16.35;;
43682;SDS011;29285;52.128;21.060;2022-12-24T20:35:40;27.20;;;16.17;;
43682;SDS011;29285;52.128;21.060;2022-12-24T20:40:41;24.20;;;15.45;;
43682;SDS011;29285;52.128;21.060;2022-12-24T20:45:51;23.22;;;14.75;;
43682;SDS011;29285;52.128;21.060;2022-12-24T20:50:56;26.97;;;14.78;;
43682;SDS011;29285;52.128;21.060;2022-12-24T20:55:59;25.75;;;15.88;;
43682;SDS011;29285;52.128;21.060;2022-12-24T21:01:06;31.30;;;18.00;;
43682;SDS011;29285;52.128;21.060;2022-12-24T21:06:12;24.15;;;15.38;;
43682;SDS011;29285;52.128;21.060;2022-12-24T21:11:15;26.62;;;17.45;;
43682;SDS011;29285;52.128;21.060;2022-12-24T21:16:36;24.60;;;16.10;;
43682;SDS011;29285;52.128;21.060;2022-12-24T21:21:39;27.30;;;16.70;;
43682;SDS011;29285;52.128;21.060;2022-12-24T21:26:40;27.52;;;16.12;;
43682;SDS011;29285;52.128;21.060;2022-12-24T21:31:42;26.27;;;16.82;;
43682;SDS011;29285;52.128;21.060;2022-12-24T21:36:43;25.25;;;15.93;;
43682;SDS011;29285;52.128;21.060;2022-12-24T21:41:45;26.05;;;15.28;;
43682;SDS011;29285;52.128;21.060;2022-12-24T21:46:46;24.27;;;15.40;;
43682;SDS011;29285;52.128;21.060;2022-12-24T21:51:47;29.85;;;17.90;;
43682;SDS011;29285;52.128;21.060;2022-12-24T21:56:50;27.10;;;15.35;;
43682;SDS011;29285;52.128;21.060;2022-12-24T22:02:12;32.05;;;18.60;;
43682;SDS011;29285;52.128;21.060;2022-12-24T22:12:45;29.20;;;18.60;;
43682;SDS011;29285;52.128;21.060;2022-12-24T22:17:47;31.50;;;18.07;;
43682;SDS011;29285;52.128;21.060;2022-12-24T22:22:48;30.57;;;17.48;;
43682;SDS011;29285;52.128;21.060;2022-12-24T22:27:51;28.90;;;16.87;;
43682;SDS011;29285;52.128;21.060;2022-12-24T22:32:52;30.00;;;19.50;;
43682;SDS011;29285;52.128;21.060;2022-12-24T22:37:54;28.98;;;18.12;;
43682;SDS011;29285;52.128;21.060;2022-12-24T22:42:55;26.80;;;17.67;;
43682;SDS011;29285;52.128;21.060;2022-12-24T22:47:57;27.45;;;17.42;;
43682;SDS011;29285;52.128;21.060;2022-12-24T22:52:58;30.35;;;17.52;;
43682;SDS011;29285;52.128;21.060;2022-12-24T22:58:00;30.65;;;16.93;;
43682;SDS011;29285;52.128;21.060;2022-12-24T23:03:03;29.05;;;18.37;;
43682;SDS011;29285;52.128;21.060;2022-12-24T23:08:05;29.92;;;18.77;;
43682;SDS011;29285;52.128;21.060;2022-12-24T23:13:09;27.70;;;17.82;;
43682;SDS011;29285;52.128;21.060;2022-12-24T23:18:31;28.60;;;17.77;;
43682;SDS011;29285;52.128;21.060;2022-12-24T23:23:33;28.05;;;18.92;;
43682;SDS011;29285;52.128;21.060;2022-12-24T23:28:35;29.25;;;18.32;;
43682;SDS011;29285;52.128;21.060;2022-12-24T23:33:37;27.37;;;16.80;;
43682;SDS011;29285;52.128;21.060;2022-12-24T23:38:39;29.27;;;18.57;;
43682;SDS011;29285;52.128;21.060;2022-12-24T23:43:41;31.48;;;19.40;;
43682;SDS011;29285;52.128;21.060;2022-12-24T23:48:42;28.45;;;18.15;;
43682;SDS011;29285;52.128;21.060;2022-12-24T23:53:46;29.25;;;17.42;;
43682;SDS011;29285;52.128;21.060;2022-12-24T23:58:48;27.80;;;16.65;;
